sensor_id;sensor_type;location;lat;lon;timestamp;pressure;altitude;pressure_sealevel;temperature;humidity
19789;BME280;10054;59.332;18.244;2022-10-15T00:01:31;100319.53;;;10.53;100.00
19789;BME280;10054;59.332;18.244;2022-10-15T00:04:00;100315.67;;;10.52;100.00
19789;BME280;10054;59.332;18.244;2022-10-15T00:06:29;100320.48;;;10.52;100.00
19789;BME280;10054;59.332;18.244;2022-10-15T00:08:58;100318.89;;;10.50;100.00
19789;BME280;10054;59.332;18.244;2022-10-15T00:11:27;100325.21;;;10.47;100.00
19789;BME280;10054;59.332;18.244;2022-10-15T00:13:58;100322.67;;;10.46;100.00
19789;BME280;10054;59.332;18.244;2022-10-15T00:16:28;100327.10;;;10.45;100.00
19789;BME280;10054;59.332;18.244;2022-10-15T00:18:58;100323.35;;;10.42;100.00
19789;BME280;10054;59.332;18.244;2022-10-15T00:21:27;100319.63;;;10.39;100.00
19789;BME280;10054;59.332;18.244;2022-10-15T00:23:56;100322.74;;;10.39;100.00
19789;BME280;10054;59.332;18.244;2022-10-15T00:26:27;100329.54;;;10.36;100.00
19789;BME280;10054;59.332;18.244;2022-10-15T00:28:59;100318.25;;;10.34;100.00
19789;BME280;10054;59.332;18.244;2022-10-15T00:31:29;100319.67;;;10.32;100.00
19789;BME280;10054;59.332;18.244;2022-10-15T00:34:00;100318.08;;;10.30;100.00
19789;BME280;10054;59.332;18.244;2022-10-15T00:36:36;100318.66;;;10.28;100.00
19789;BME280;10054;59.332;18.244;2022-10-15T00:39:02;100311.59;;;10.28;100.00
19789;BME280;10054;59.332;18.244;2022-10-15T00:41:35;100313.38;;;10.28;100.00
19789;BME280;10054;59.332;18.244;2022-10-15T00:46:53;100307.47;;;10.24;100.00
19789;BME280;10054;59.332;18.244;2022-10-15T00:49:36;100315.75;;;10.25;100.00
19789;BME280;10054;59.332;18.244;2022-10-15T00:52:13;100312.47;;;10.22;100.00
19789;BME280;10054;59.332;18.244;2022-10-15T00:54:52;100309.52;;;10.19;100.00
19789;BME280;10054;59.332;18.244;2022-10-15T00:57:17;100310.47;;;10.18;100.00
19789;BME280;10054;59.332;18.244;2022-10-15T00:59:48;100302.86;;;10.13;100.00
19789;BME280;10054;59.332;18.244;2022-10-15T01:02:18;100310.50;;;10.11;100.00
19789;BME280;10054;59.332;18.244;2022-10-15T01:04:49;100306.55;;;10.11;100.00
19789;BME280;10054;59.332;18.244;2022-10-15T01:07:18;100305.33;;;10.09;100.00
19789;BME280;10054;59.332;18.244;2022-10-15T01:09:47;100306.38;;;10.07;100.00
19789;BME280;10054;59.332;18.244;2022-10-15T01:18:28;100302.63;;;10.04;100.00
19789;BME280;10054;59.332;18.244;2022-10-15T01:21:04;100300.55;;;10.02;100.00
19789;BME280;10054;59.332;18.244;2022-10-15T01:26:51;100299.54;;;9.97;100.00
19789;BME280;10054;59.332;18.244;2022-10-15T01:29:09;100293.05;;;9.96;100.00
19789;BME280;10054;59.332;18.244;2022-10-15T01:38:07;100290.34;;;9.90;100.00
19789;BME280;10054;59.332;18.244;2022-10-15T01:39:58;100294.56;;;9.93;100.00
19789;BME280;10054;59.332;18.244;2022-10-15T01:42:36;100286.96;;;9.88;100.00
19789;BME280;10054;59.332;18.244;2022-10-15T01:45:09;100286.31;;;9.84;100.00
19789;BME280;10054;59.332;18.244;2022-10-15T01:47:51;100286.41;;;9.83;100.00
19789;BME280;10054;59.332;18.244;2022-10-15T01:50:24;100275.13;;;9.81;100.00
19789;BME280;10054;59.332;18.244;2022-10-15T01:52:56;100273.16;;;9.77;100.00
19789;BME280;10054;59.332;18.244;2022-10-15T01:55:26;100275.23;;;9.79;100.00
19789;BME280;10054;59.332;18.244;2022-10-15T01:57:58;100267.89;;;9.77;100.00
19789;BME280;10054;59.332;18.244;2022-10-15T02:00:28;100266.88;;;9.73;100.00
19789;BME280;10054;59.332;18.244;2022-10-15T02:03:03;100264.34;;;9.71;100.00
19789;BME280;10054;59.332;18.244;2022-10-15T02:05:37;100260.48;;;9.70;100.00
19789;BME280;10054;59.332;18.244;2022-10-15T02:11:06;100263.08;;;9.64;100.00
19789;BME280;10054;59.332;18.244;2022-10-15T02:16:46;100258.58;;;9.59;100.00
19789;BME280;10054;59.332;18.244;2022-10-15T02:22:05;100244.28;;;9.56;100.00
19789;BME280;10054;59.332;18.244;2022-10-15T02:24:55;100242.80;;;9.52;100.00
19789;BME280;10054;59.332;18.244;2022-10-15T02:27:21;100244.58;;;9.51;100.00
19789;BME280;10054;59.332;18.244;2022-10-15T02:29:50;100245.52;;;9.50;100.00
19789;BME280;10054;59.332;18.244;2022-10-15T02:32:21;100239.43;;;9.43;100.00
19789;BME280;10054;59.332;18.244;2022-10-15T02:34:51;100243.38;;;9.43;100.00
19789;BME280;10054;59.332;18.244;2022-10-15T02:37:24;100239.91;;;9.42;100.00
19789;BME280;10054;59.332;18.244;2022-10-15T02:39:57;100240.66;;;9.37;100.00
19789;BME280;10054;59.332;18.244;2022-10-15T02:42:25;100235.88;;;9.37;100.00
19789;BME280;10054;59.332;18.244;2022-10-15T02:44:54;100233.70;;;9.36;100.00
19789;BME280;10054;59.332;18.244;2022-10-15T02:47:23;100232.59;;;9.33;100.00
19789;BME280;10054;59.332;18.244;2022-10-15T02:49:53;100228.27;;;9.32;100.00
19789;BME280;10054;59.332;18.244;2022-10-15T02:52:23;100217.64;;;9.34;100.00
19789;BME280;10054;59.332;18.244;2022-10-15T02:54:52;100216.89;;;9.32;100.00
19789;BME280;10054;59.332;18.244;2022-10-15T02:57:21;100221.41;;;9.30;100.00
19789;BME280;10054;59.332;18.244;2022-10-15T02:59:51;100215.30;;;9.29;100.00
19789;BME280;10054;59.332;18.244;2022-10-15T03:02:20;100218.59;;;9.26;100.00
19789;BME280;10054;59.332;18.244;2022-10-15T03:04:49;100217.75;;;9.25;100.00
19789;BME280;10054;59.332;18.244;2022-10-15T03:07:18;100213.61;;;9.28;100.00
19789;BME280;10054;59.332;18.244;2022-10-15T03:09:48;100206.66;;;9.27;100.00
19789;BME280;10054;59.332;18.244;2022-10-15T03:12:17;100209.19;;;9.29;100.00
19789;BME280;10054;59.332;18.244;2022-10-15T03:14:48;100212.94;;;9.32;100.00
19789;BME280;10054;59.332;18.244;2022-10-15T03:17:18;100211.43;;;9.35;100.00
19789;BME280;10054;59.332;18.244;2022-10-15T03:19:49;100215.58;;;9.32;100.00
19789;BME280;10054;59.332;18.244;2022-10-15T03:22:18;100216.89;;;9.32;100.00
19789;BME280;10054;59.332;18.244;2022-10-15T03:24:48;100207.95;;;9.34;100.00
19789;BME280;10054;59.332;18.244;2022-10-15T03:27:19;100211.53;;;9.33;100.00
19789;BME280;10054;59.332;18.244;2022-10-15T03:29:48;100203.44;;;9.36;100.00
19789;BME280;10054;59.332;18.244;2022-10-15T03:32:17;100207.46;;;9.42;100.00
19789;BME280;10054;59.332;18.244;2022-10-15T03:34:46;100203.52;;;9.42;100.00
19789;BME280;10054;59.332;18.244;2022-10-15T03:37:14;100209.42;;;9.45;100.00
19789;BME280;10054;59.332;18.244;2022-10-15T03:39:43;100207.91;;;9.48;100.00
19789;BME280;10054;59.332;18.244;2022-10-15T03:42:13;100210.45;;;9.50;100.00
19789;BME280;10054;59.332;18.244;2022-10-15T03:44:46;100207.25;;;9.52;100.00
19789;BME280;10054;59.332;18.244;2022-10-15T03:47:16;100202.63;;;9.55;100.00
19789;BME280;10054;59.332;18.244;2022-10-15T03:49:50;100195.47;;;9.58;100.00
19789;BME280;10054;59.332;18.244;2022-10-15T03:52:19;100198.48;;;9.59;100.00
19789;BME280;10054;59.332;18.244;2022-10-15T03:54:48;100196.02;;;9.63;100.00
19789;BME280;10054;59.332;18.244;2022-10-15T03:57:19;100194.47;;;9.66;100.00
19789;BME280;10054;59.332;18.244;2022-10-15T03:59:50;100199.49;;;9.63;100.00
19789;BME280;10054;59.332;18.244;2022-10-15T04:02:21;100190.05;;;9.66;100.00
19789;BME280;10054;59.332;18.244;2022-10-15T04:04:53;100193.80;;;9.69;100.00
19789;BME280;10054;59.332;18.244;2022-10-15T04:07:22;100183.63;;;9.70;100.00
19789;BME280;10054;59.332;18.244;2022-10-15T04:09:51;100183.43;;;9.73;100.00
19789;BME280;10054;59.332;18.244;2022-10-15T04:12:21;100175.70;;;9.77;100.00
19789;BME280;10054;59.332;18.244;2022-10-15T04:14:50;100172.86;;;9.80;100.00
19789;BME280;10054;59.332;18.244;2022-10-15T04:17:19;100157.33;;;9.83;100.00
19789;BME280;10054;59.332;18.244;2022-10-15T04:19:49;100165.29;;;9.88;100.00
19789;BME280;10054;59.332;18.244;2022-10-15T04:22:19;100164.52;;;9.94;100.00
19789;BME280;10054;59.332;18.244;2022-10-15T04:24:49;100156.88;;;9.96;100.00
19789;BME280;10054;59.332;18.244;2022-10-15T04:27:20;100152.23;;;10.00;100.00
19789;BME280;10054;59.332;18.244;2022-10-15T04:29:50;100148.45;;;10.04;100.00
19789;BME280;10054;59.332;18.244;2022-10-15T04:32:19;100148.24;;;10.07;100.00
19789;BME280;10054;59.332;18.244;2022-10-15T04:34:48;100152.94;;;10.09;100.00
19789;BME280;10054;59.332;18.244;2022-10-15T04:37:19;100161.48;;;10.12;100.00
19789;BME280;10054;59.332;18.244;2022-10-15T04:39:48;100158.27;;;10.14;100.00
19789;BME280;10054;59.332;18.244;2022-10-15T04:42:17;100151.67;;;10.14;100.00
19789;BME280;10054;59.332;18.244;2022-10-15T04:44:48;100153.45;;;10.21;100.00
19789;BME280;10054;59.332;18.244;2022-10-15T04:47:17;100143.06;;;10.25;100.00
19789;BME280;10054;59.332;18.244;2022-10-15T04:49:47;100145.59;;;10.27;100.00
19789;BME280;10054;59.332;18.244;2022-10-15T04:52:33;100144.55;;;10.29;100.00
19789;BME280;10054;59.332;18.244;2022-10-15T04:55:04;100137.53;;;10.35;100.00
19789;BME280;10054;59.332;18.244;2022-10-15T04:57:33;100128.46;;;10.39;100.00
19789;BME280;10054;59.332;18.244;2022-10-15T05:00:03;100134.23;;;10.44;100.00
19789;BME280;10054;59.332;18.244;2022-10-15T05:02:34;100129.47;;;10.49;100.00
19789;BME280;10054;59.332;18.244;2022-10-15T05:05:10;100132.74;;;10.53;100.00
19789;BME280;10054;59.332;18.244;2022-10-15T05:07:41;100129.26;;;10.52;100.00
19789;BME280;10054;59.332;18.244;2022-10-15T05:10:09;100127.73;;;10.56;100.00
19789;BME280;10054;59.332;18.244;2022-10-15T05:12:39;100124.03;;;10.58;100.00
19789;BME280;10054;59.332;18.244;2022-10-15T05:15:08;100123.45;;;10.60;100.00
19789;BME280;10054;59.332;18.244;2022-10-15T05:17:37;100118.69;;;10.65;100.00
19789;BME280;10054;59.332;18.244;2022-10-15T05:20:08;100114.15;;;10.67;100.00
19789;BME280;10054;59.332;18.244;2022-10-15T05:22:37;100112.83;;;10.67;100.00
19789;BME280;10054;59.332;18.244;2022-10-15T05:25:06;100106.86;;;10.71;100.00
19789;BME280;10054;59.332;18.244;2022-10-15T05:27:37;100110.23;;;10.73;100.00
19789;BME280;10054;59.332;18.244;2022-10-15T05:30:07;100106.27;;;10.73;100.00
19789;BME280;10054;59.332;18.244;2022-10-15T05:32:38;100107.38;;;10.76;100.00
19789;BME280;10054;59.332;18.244;2022-10-15T05:35:08;100101.77;;;10.80;100.00
19789;BME280;10054;59.332;18.244;2022-10-15T05:37:48;100100.23;;;10.83;100.00
19789;BME280;10054;59.332;18.244;2022-10-15T05:40:18;100099.65;;;10.85;100.00
19789;BME280;10054;59.332;18.244;2022-10-15T05:42:50;100098.25;;;10.93;100.00
19789;BME280;10054;59.332;18.244;2022-10-15T05:45:20;100091.91;;;10.95;100.00
19789;BME280;10054;59.332;18.244;2022-10-15T05:47:54;100084.36;;;10.96;100.00
19789;BME280;10054;59.332;18.244;2022-10-15T05:50:23;100097.33;;;10.99;100.00
19789;BME280;10054;59.332;18.244;2022-10-15T05:52:54;100094.95;;;11.02;100.00
19789;BME280;10054;59.332;18.244;2022-10-15T05:55:30;100090.52;;;11.02;100.00
19789;BME280;10054;59.332;18.244;2022-10-15T05:58:03;100095.09;;;11.06;100.00
19789;BME280;10054;59.332;18.244;2022-10-15T06:00:33;100094.03;;;11.08;100.00
19789;BME280;10054;59.332;18.244;2022-10-15T06:03:02;100097.51;;;11.09;100.00
19789;BME280;10054;59.332;18.244;2022-10-15T06:05:31;100093.06;;;11.15;100.00
19789;BME280;10054;59.332;18.244;2022-10-15T06:08:00;100087.56;;;11.18;100.00
19789;BME280;10054;59.332;18.244;2022-10-15T06:10:29;100084.92;;;11.18;100.00
19789;BME280;10054;59.332;18.244;2022-10-15T06:12:58;100089.62;;;11.20;100.00
19789;BME280;10054;59.332;18.244;2022-10-15T06:15:27;100091.80;;;11.26;100.00
19789;BME280;10054;59.332;18.244;2022-10-15T06:17:55;100087.00;;;11.26;100.00
19789;BME280;10054;59.332;18.244;2022-10-15T06:20:24;100091.80;;;11.26;100.00
19789;BME280;10054;59.332;18.244;2022-10-15T06:22:57;100089.05;;;11.28;100.00
19789;BME280;10054;59.332;18.244;2022-10-15T06:25:27;100085.45;;;11.29;100.00
19789;BME280;10054;59.332;18.244;2022-10-15T06:27:59;100088.09;;;11.29;100.00
19789;BME280;10054;59.332;18.244;2022-10-15T06:30:27;100083.80;;;11.33;100.00
19789;BME280;10054;59.332;18.244;2022-10-15T06:32:56;100081.88;;;11.35;100.00
19789;BME280;10054;59.332;18.244;2022-10-15T06:35:25;100079.97;;;11.37;100.00
19789;BME280;10054;59.332;18.244;2022-10-15T06:37:58;100071.44;;;11.34;100.00
19789;BME280;10054;59.332;18.244;2022-10-15T06:40:27;100083.59;;;11.42;100.00
19789;BME280;10054;59.332;18.244;2022-10-15T06:43:07;100069.80;;;11.44;100.00
19789;BME280;10054;59.332;18.244;2022-10-15T06:45:39;100068.84;;;11.45;100.00
19789;BME280;10054;59.332;18.244;2022-10-15T06:48:11;100069.92;;;11.48;100.00
19789;BME280;10054;59.332;18.244;2022-10-15T06:50:40;100088.78;;;11.49;100.00
19789;BME280;10054;59.332;18.244;2022-10-15T06:53:09;100085.05;;;11.46;100.00
19789;BME280;10054;59.332;18.244;2022-10-15T06:55:38;100084.09;;;11.47;100.00
19789;BME280;10054;59.332;18.244;2022-10-15T06:58:07;100084.34;;;11.49;100.00
19789;BME280;10054;59.332;18.244;2022-10-15T07:00:36;100082.91;;;11.51;100.00
19789;BME280;10054;59.332;18.244;2022-10-15T07:03:06;100082.91;;;11.51;100.00
19789;BME280;10054;59.332;18.244;2022-10-15T07:05:35;100091.56;;;11.53;100.00
19789;BME280;10054;59.332;18.244;2022-10-15T07:08:06;100087.48;;;11.55;100.00
19789;BME280;10054;59.332;18.244;2022-10-15T07:10:35;100086.16;;;11.55;100.00
19789;BME280;10054;59.332;18.244;2022-10-15T07:13:04;100075.23;;;11.53;100.00
19789;BME280;10054;59.332;18.244;2022-10-15T07:15:33;100077.75;;;11.55;100.00
19789;BME280;10054;59.332;18.244;2022-10-15T07:18:02;100083.17;;;11.59;100.00
19789;BME280;10054;59.332;18.244;2022-10-15T07:20:31;100071.52;;;11.56;100.00
19789;BME280;10054;59.332;18.244;2022-10-15T07:23:01;100077.41;;;11.60;100.00
19789;BME280;10054;59.332;18.244;2022-10-15T07:25:31;100077.18;;;11.63;100.00
19789;BME280;10054;59.332;18.244;2022-10-15T07:28:00;100084.64;;;11.69;100.00
19789;BME280;10054;59.332;18.244;2022-10-15T07:30:28;100081.30;;;11.72;100.00
19789;BME280;10054;59.332;18.244;2022-10-15T07:33:00;100084.83;;;11.78;100.00
19789;BME280;10054;59.332;18.244;2022-10-15T07:35:30;100090.12;;;11.84;100.00
19789;BME280;10054;59.332;18.244;2022-10-15T07:38:02;100092.38;;;11.89;100.00
19789;BME280;10054;59.332;18.244;2022-10-15T07:40:31;100080.87;;;11.84;100.00
19789;BME280;10054;59.332;18.244;2022-10-15T07:43:04;100090.38;;;11.87;100.00
19789;BME280;10054;59.332;18.244;2022-10-15T07:45:33;100090.38;;;11.87;100.00
19789;BME280;10054;59.332;18.244;2022-10-15T07:48:03;100090.84;;;11.86;100.00
19789;BME280;10054;59.332;18.244;2022-10-15T07:50:32;100099.14;;;11.87;100.00
19789;BME280;10054;59.332;18.244;2022-10-15T07:53:01;100093.02;;;11.87;100.00
19789;BME280;10054;59.332;18.244;2022-10-15T07:55:30;100083.64;;;11.88;100.00
19789;BME280;10054;59.332;18.244;2022-10-15T07:57:59;100085.30;;;11.89;100.00
19789;BME280;10054;59.332;18.244;2022-10-15T08:00:28;100085.30;;;11.89;100.00
19789;BME280;10054;59.332;18.244;2022-10-15T08:02:56;100089.51;;;11.92;100.00
19789;BME280;10054;59.332;18.244;2022-10-15T08:05:25;100096.84;;;11.94;100.00
19789;BME280;10054;59.332;18.244;2022-10-15T08:07:54;100087.70;;;11.92;100.00
19789;BME280;10054;59.332;18.244;2022-10-15T08:10:23;100083.27;;;11.93;100.00
19789;BME280;10054;59.332;18.244;2022-10-15T08:12:54;100087.72;;;11.98;100.00
19789;BME280;10054;59.332;18.244;2022-10-15T08:15:22;100091.56;;;11.99;100.00
19789;BME280;10054;59.332;18.244;2022-10-15T08:17:52;100094.22;;;12.05;100.00
19789;BME280;10054;59.332;18.244;2022-10-15T08:20:21;100094.22;;;12.05;100.00
19789;BME280;10054;59.332;18.244;2022-10-15T08:22:50;100093.86;;;12.09;100.00
19789;BME280;10054;59.332;18.244;2022-10-15T08:25:18;100087.01;;;12.07;100.00
19789;BME280;10054;59.332;18.244;2022-10-15T08:27:48;100088.09;;;12.10;100.00
19789;BME280;10054;59.332;18.244;2022-10-15T08:30:16;100084.25;;;12.14;100.00
19789;BME280;10054;59.332;18.244;2022-10-15T08:32:45;100088.23;;;12.20;100.00
19789;BME280;10054;59.332;18.244;2022-10-15T08:35:14;100084.37;;;12.18;100.00
19789;BME280;10054;59.332;18.244;2022-10-15T08:37:43;100077.17;;;12.20;100.00
19789;BME280;10054;59.332;18.244;2022-10-15T08:40:12;100087.14;;;12.22;100.00
19789;BME280;10054;59.332;18.244;2022-10-15T08:42:49;100079.94;;;12.24;100.00
19789;BME280;10054;59.332;18.244;2022-10-15T08:45:37;100085.59;;;12.25;100.00
19789;BME280;10054;59.332;18.244;2022-10-15T08:48:17;100078.38;;;12.27;100.00
19789;BME280;10054;59.332;18.244;2022-10-15T08:50:50;100082.58;;;12.24;100.00
19789;BME280;10054;59.332;18.244;2022-10-15T08:53:22;100082.58;;;12.24;100.00
19789;BME280;10054;59.332;18.244;2022-10-15T08:55:57;100089.08;;;12.31;100.00
19789;BME280;10054;59.332;18.244;2022-10-15T08:58:41;100086.31;;;12.33;100.00
19789;BME280;10054;59.332;18.244;2022-10-15T09:06:38;100095.69;;;12.42;100.00
19789;BME280;10054;59.332;18.244;2022-10-15T09:12:31;100086.55;;;12.46;100.00
19789;BME280;10054;59.332;18.244;2022-10-15T09:14:40;100087.03;;;12.46;100.00
19789;BME280;10054;59.332;18.244;2022-10-15T09:17:24;100088.23;;;12.47;100.00
19789;BME280;10054;59.332;18.244;2022-10-15T09:19:55;100095.21;;;12.48;100.00
19789;BME280;10054;59.332;18.244;2022-10-15T09:22:27;100088.59;;;12.48;100.00
19789;BME280;10054;59.332;18.244;2022-10-15T09:24:56;100092.80;;;12.51;100.00
19789;BME280;10054;59.332;18.244;2022-10-15T09:27:29;100090.40;;;12.54;100.00
19789;BME280;10054;59.332;18.244;2022-10-15T09:35:33;100092.69;;;12.53;100.00
19789;BME280;10054;59.332;18.244;2022-10-15T09:40:47;100095.45;;;12.51;100.00
19789;BME280;10054;59.332;18.244;2022-10-15T09:43:13;100092.69;;;12.53;100.00
19789;BME280;10054;59.332;18.244;2022-10-15T09:45:45;100086.43;;;12.54;100.00
19789;BME280;10054;59.332;18.244;2022-10-15T09:48:16;100090.03;;;12.58;100.00
19789;BME280;10054;59.332;18.244;2022-10-15T09:51:06;100088.83;;;12.62;100.00
19789;BME280;10054;59.332;18.244;2022-10-15T09:53:49;100087.11;;;12.67;100.00
19789;BME280;10054;59.332;18.244;2022-10-15T09:56:18;100091.44;;;12.68;100.00
19789;BME280;10054;59.332;18.244;2022-10-15T09:58:55;100091.31;;;12.69;100.00
19789;BME280;10054;59.332;18.244;2022-10-15T10:01:34;100099.86;;;12.73;100.00
19789;BME280;10054;59.332;18.244;2022-10-15T10:04:20;100096.60;;;12.75;100.00
19789;BME280;10054;59.332;18.244;2022-10-15T10:06:53;100094.08;;;12.73;100.00
19789;BME280;10054;59.332;18.244;2022-10-15T10:09:29;100088.42;;;12.78;100.00
19789;BME280;10054;59.332;18.244;2022-10-15T10:12:01;100098.41;;;12.80;100.00
19789;BME280;10054;59.332;18.244;2022-10-15T10:14:45;100101.16;;;12.84;100.00
19789;BME280;10054;59.332;18.244;2022-10-15T10:17:21;100097.07;;;12.86;100.00
19789;BME280;10054;59.332;18.244;2022-10-15T10:20:08;100096.09;;;12.92;100.00
19789;BME280;10054;59.332;18.244;2022-10-15T10:22:49;100088.14;;;12.98;100.00
19789;BME280;10054;59.332;18.244;2022-10-15T10:25:32;100089.47;;;12.98;100.00
19789;BME280;10054;59.332;18.244;2022-10-15T10:30:57;100090.06;;;13.01;100.00
19789;BME280;10054;59.332;18.244;2022-10-15T10:33:28;100090.30;;;12.98;100.00
19789;BME280;10054;59.332;18.244;2022-10-15T10:35:57;100084.54;;;12.93;100.00
19789;BME280;10054;59.332;18.244;2022-10-15T10:38:32;100085.50;;;12.92;100.00
19789;BME280;10054;59.332;18.244;2022-10-15T10:41:07;100081.89;;;12.93;100.00
19789;BME280;10054;59.332;18.244;2022-10-15T10:43:38;100083.22;;;12.93;100.00
19789;BME280;10054;59.332;18.244;2022-10-15T10:46:16;100090.20;;;12.94;100.00
19789;BME280;10054;59.332;18.244;2022-10-15T10:48:50;100092.72;;;12.96;100.00
19789;BME280;10054;59.332;18.244;2022-10-15T10:51:25;100088.88;;;12.94;100.00
19789;BME280;10054;59.332;18.244;2022-10-15T10:56:43;100088.27;;;12.96;100.00
19789;BME280;10054;59.332;18.244;2022-10-15T10:59:22;100082.97;;;12.96;100.00
19789;BME280;10054;59.332;18.244;2022-10-15T11:01:50;100086.10;;;12.96;100.00
19789;BME280;10054;59.332;18.244;2022-10-15T11:04:28;100076.11;;;12.94;100.00
19789;BME280;10054;59.332;18.244;2022-10-15T11:20:53;100088.52;;;12.88;100.00
19789;BME280;10054;59.332;18.244;2022-10-15T11:37:58;100073.96;;;12.88;100.00
19789;BME280;10054;59.332;18.244;2022-10-15T11:46:53;100059.39;;;12.93;100.00
19789;BME280;10054;59.332;18.244;2022-10-15T11:49:03;100067.44;;;12.97;100.00
19789;BME280;10054;59.332;18.244;2022-10-15T11:51:47;100066.00;;;12.99;100.00
19789;BME280;10054;59.332;18.244;2022-10-15T11:57:03;100063.94;;;13.02;100.00
19789;BME280;10054;59.332;18.244;2022-10-15T12:02:16;100069.95;;;13.04;100.00
19789;BME280;10054;59.332;18.244;2022-10-15T12:04:49;100066.34;;;13.05;100.00
19789;BME280;10054;59.332;18.244;2022-10-15T12:07:27;100065.73;;;13.07;100.00
19789;BME280;10054;59.332;18.244;2022-10-15T12:15:52;100053.20;;;13.09;100.00
19789;BME280;10054;59.332;18.244;2022-10-15T12:18:51;100049.84;;;13.07;100.00
19789;BME280;10054;59.332;18.244;2022-10-15T12:21:34;100047.67;;;13.07;100.00
19789;BME280;10054;59.332;18.244;2022-10-15T12:24:04;100045.52;;;13.06;100.00
19789;BME280;10054;59.332;18.244;2022-10-15T12:26:36;100038.17;;;13.04;100.00
19789;BME280;10054;59.332;18.244;2022-10-15T12:29:17;100042.02;;;13.06;100.00
19789;BME280;10054;59.332;18.244;2022-10-15T12:31:44;100039.02;;;13.05;100.00
19789;BME280;10054;59.332;18.244;2022-10-15T12:37:04;100036.49;;;13.03;100.00
19789;BME280;10054;59.332;18.244;2022-10-15T12:39:36;100038.17;;;13.04;100.00
19789;BME280;10054;59.332;18.244;2022-10-15T12:42:30;100041.91;;;13.02;100.00
19789;BME280;10054;59.332;18.244;2022-10-15T12:44:54;100046.73;;;13.02;100.00
19789;BME280;10054;59.332;18.244;2022-10-15T12:47:55;100046.12;;;13.04;100.00
19789;BME280;10054;59.332;18.244;2022-10-15T12:50:26;100041.18;;;13.05;100.00
19789;BME280;10054;59.332;18.244;2022-10-15T12:55:38;100036.85;;;13.04;100.00
19789;BME280;10054;59.332;18.244;2022-10-15T12:58:33;100032.52;;;13.03;100.00
19789;BME280;10054;59.332;18.244;2022-10-15T13:11:31;100023.30;;;12.87;100.00
19789;BME280;10054;59.332;18.244;2022-10-15T13:14:31;100028.95;;;12.88;100.00
19789;BME280;10054;59.332;18.244;2022-10-15T13:17:20;100029.92;;;12.87;100.00
19789;BME280;10054;59.332;18.244;2022-10-15T13:19:55;100027.66;;;12.82;100.00
19789;BME280;10054;59.332;18.244;2022-10-15T13:22:31;100031.27;;;12.81;100.00
19789;BME280;10054;59.332;18.244;2022-10-15T13:25:00;100022.48;;;12.80;100.00
19789;BME280;10054;59.332;18.244;2022-10-15T13:27:36;100028.15;;;12.76;100.00
19789;BME280;10054;59.332;18.244;2022-10-15T13:30:11;100018.88;;;12.76;100.00
19789;BME280;10054;59.332;18.244;2022-10-15T13:32:44;100019.73;;;12.76;100.00
19789;BME280;10054;59.332;18.244;2022-10-15T13:35:18;100014.68;;;12.73;100.00
19789;BME280;10054;59.332;18.244;2022-10-15T13:37:43;100016.97;;;12.72;100.00
19789;BME280;10054;59.332;18.244;2022-10-15T13:40:29;100022.63;;;12.73;100.00
19789;BME280;10054;59.332;18.244;2022-10-15T13:43:02;100024.30;;;12.74;100.00
19789;BME280;10054;59.332;18.244;2022-10-15T13:45:33;100025.03;;;12.71;100.00
19789;BME280;10054;59.332;18.244;2022-10-15T13:48:02;100027.92;;;12.68;100.00
19789;BME280;10054;59.332;18.244;2022-10-15T13:50:35;100021.19;;;12.69;100.00
19789;BME280;10054;59.332;18.244;2022-10-15T13:53:18;100019.31;;;12.60;100.00
19789;BME280;10054;59.332;18.244;2022-10-15T13:55:47;100019.31;;;12.60;100.00
19789;BME280;10054;59.332;18.244;2022-10-15T14:01:17;100026.24;;;12.67;100.00
19789;BME280;10054;59.332;18.244;2022-10-15T14:03:48;100027.81;;;12.64;100.00
19789;BME280;10054;59.332;18.244;2022-10-15T14:06:25;100027.81;;;12.64;100.00
19789;BME280;10054;59.332;18.244;2022-10-15T14:08:56;100025.16;;;12.64;100.00
19789;BME280;10054;59.332;18.244;2022-10-15T14:11:34;100029.38;;;12.66;100.00
19789;BME280;10054;59.332;18.244;2022-10-15T14:13:58;100035.62;;;12.65;100.00
19789;BME280;10054;59.332;18.244;2022-10-15T14:16:42;100028.41;;;12.67;100.00
19789;BME280;10054;59.332;18.244;2022-10-15T14:19:14;100024.80;;;12.68;100.00
19789;BME280;10054;59.332;18.244;2022-10-15T14:21:43;100023.47;;;12.68;100.00
19789;BME280;10054;59.332;18.244;2022-10-15T14:24:18;100020.23;;;12.65;100.00
19789;BME280;10054;59.332;18.244;2022-10-15T14:26:48;100019.75;;;12.65;100.00
19789;BME280;10054;59.332;18.244;2022-10-15T14:29:27;100019.14;;;12.67;100.00
19789;BME280;10054;59.332;18.244;2022-10-15T14:31:54;100019.27;;;12.66;100.00
19789;BME280;10054;59.332;18.244;2022-10-15T14:34:37;100020.59;;;12.66;100.00
19789;BME280;10054;59.332;18.244;2022-10-15T14:40:15;100020.23;;;12.65;100.00
19789;BME280;10054;59.332;18.244;2022-10-15T14:42:46;100031.05;;;12.67;100.00
19789;BME280;10054;59.332;18.244;2022-10-15T14:47:54;100038.87;;;12.69;100.00
19789;BME280;10054;59.332;18.244;2022-10-15T14:50:19;100034.90;;;12.69;100.00
19789;BME280;10054;59.332;18.244;2022-10-15T14:52:50;100027.44;;;12.68;100.00
19789;BME280;10054;59.332;18.244;2022-10-15T14:57:51;100032.97;;;12.71;100.00
19789;BME280;10054;59.332;18.244;2022-10-15T15:00:38;100033.45;;;12.70;100.00